Combi Dock III — V2PX8 — position and weather

sailwx.info

Track history (hours):
 
Tides and Currents Weather Stations Pressure Air Temp Water Temp Dewpoint Dewpoint Depression Visibility Wind Speed Wind Dir Waves Ship Positions

Combi Dock III

Last reported at 2017-Sep-27 09:56 UTC. Time now 2017-Oct-18 15:13 UTC.
Position N 36°12' E 014°40'.
Warning: this ship's position is 21 days out of date.

Length 162 m; draft 6.5 m.

Type: Ship (hazmat cat D). MMSI: 305351000.

Date/timePositionNaut miles runAvg speedWind from/ knotsBaromVisibWave heightAir tempDewpointWater temp
2017-Sep-27 09:56N 36°12' E 014°40'512.2
2017-Sep-27 09:30N 36°13' E 014°34'612.1
2017-Sep-27 08:59N 36°17' E 014°28'612.5
2017-Sep-27 08:30N 36°22' E 014°23'612.8
2017-Sep-27 08:01N 36°25' E 014°16'816.3
2017-Sep-27 07:30N 36°27' E 014°06'39412.2
2017-Sep-25 23:14N 37°28' E 005°59'312.5
2017-Sep-25 23:00N 37°28' E 005°56'1912.4
2017-Sep-25 21:27N 37°27' E 005°32'612.2
2017-Sep-25 20:56N 37°26' E 005°24'512.3
2017-Sep-25 20:30N 37°26' E 005°17'912.3
2017-Sep-25 19:47N 37°25' E 005°06'1812.3
2017-Sep-25 18:17N 37°24' E 004°43'412.5
2017-Sep-25 18:00N 37°23' E 004°38'812.7
2017-Sep-25 17:23N 37°23' E 004°29'812.9
2017-Sep-25 16:46N 37°23' E 004°18'313.0
2017-Sep-25 16:30N 37°22' E 004°14'713.1
2017-Sep-25 16:00N 37°22' E 004°06'713.4
2017-Sep-25 15:30N 37°21' E 003°58'713.3
2017-Sep-25 15:00N 37°21' E 003°49'713.2
2017-Sep-25 14:28N 37°20' E 003°41'613.1
2017-Sep-25 14:00N 37°18' E 003°33'712.9
2017-Sep-25 13:29N 37°17' E 003°25'711.7
2017-Sep-25 12:55N 37°16' E 003°17'4 9.7
2017-Sep-25 12:30N 37°15' E 003°12'816.0
2017-Sep-25 12:00N 37°13' E 003°02'816.0
2017-Sep-25 11:29N 37°12' E 002°52'1113.5
2017-Sep-25 10:40N 37°09' E 002°38'3112.9
2017-Sep-25 08:16N 37°03' E 001°60'312.8
2017-Sep-25 08:00N 37°02' E 001°56'612.7
2017-Sep-25 07:30N 37°01' E 001°48'612.7
2017-Sep-25 07:00N 36°59' E 001°40'612.3
2017-Sep-25 06:30N 36°58' E 001°33'711.9
2017-Sep-25 05:56N 36°57' E 001°24'512.1
2017-Sep-25 05:30N 36°56' E 001°18'612.1
2017-Sep-25 05:00N 36°55' E 001°11'1012.3
2017-Sep-25 04:11N 36°54' E 000°58'312.5
2017-Sep-25 03:56N 36°53' E 000°54'512.8
2017-Sep-25 03:30N 36°52' E 000°48'612.6
2017-Sep-25 03:00N 36°50' E 000°40'612.5
2017-Sep-25 02:30N 36°49' E 000°32'612.6
2017-Sep-25 02:00N 36°48' E 000°25'612.6
2017-Sep-25 01:30N 36°46' E 000°17'612.8
2017-Sep-25 01:00N 36°45' E 000°09'612.5
2017-Sep-25 00:30N 36°44' E 000°01'612.3
2017-Sep-25 00:00N 36°43' W 000°06'612.1
2017-Sep-24 23:29N 36°41' W 000°14'612.0
2017-Sep-24 22:57N 36°40' W 000°22'512.1
2017-Sep-24 22:30N 36°39' W 000°28'1211.9
2017-Sep-24 21:30N 36°36' W 000°43'612.1
2017-Sep-24 21:00N 36°35' W 000°50'612.2
2017-Sep-24 20:30N 36°34' W 000°57'612.4
2017-Sep-24 20:00N 36°33' W 001°05'712.8
2017-Sep-24 19:25N 36°31' W 001°14'513.1
2017-Sep-24 19:00N 36°30' W 001°21'3413.3
2017-Sep-24 16:28N 36°23' W 002°02'1612.6
2017-Sep-24 15:13N 36°21' W 002°21'13712.6
2017-Sep-24 04:19N 36°01' W 005°10'412.7
2017-Sep-24 04:00N 36°00' W 005°14'612.6
2017-Sep-24 03:30N 35°58' W 005°22'612.1
2017-Sep-24 03:00N 35°57' W 005°29'810.0
2017-Sep-24 02:11N 35°54' W 005°39'2 9.3
2017-Sep-24 02:00N 35°54' W 005°41'4 8.3
2017-Sep-24 01:30N 35°53' W 005°46'13 9.7
2017-Sep-24 00:07N 35°53' W 006°02'  
2017-Sep-21 05:15N 43°50' W 006°20'310.4
2017-Sep-21 05:00N 43°50' W 006°16'510.4
2017-Sep-21 04:30N 43°50' W 006°09'710.2
2017-Sep-21 03:47N 43°48' W 005°59'310.5
2017-Sep-21 03:30N 43°48' W 005°55'510.4
2017-Sep-21 03:00N 43°47' W 005°48'510.4
2017-Sep-21 02:30N 43°47' W 005°41'510.0
2017-Sep-21 02:00N 43°46' W 005°34'510.0
2017-Sep-21 01:30N 43°46' W 005°27'510.1
2017-Sep-21 01:00N 43°45' W 005°20'510.1
2017-Sep-21 00:28N 43°45' W 005°12'5 9.9
2017-Sep-20 23:59N 43°44' W 005°06'  
Track history (hours):
 
Tides and Currents Weather Stations Pressure Air Temp Water Temp Dewpoint Dewpoint Depression Visibility Wind Speed Wind Dir Waves Ship Positions

Combi Dock III

Last reported at 2017-Sep-27 09:56 UTC. Time now 2017-Oct-18 15:13 UTC.
Position N 36°12' E 014°40'.
Warning: this ship's position is 21 days out of date.

Length 162 m; draft 6.5 m.

Type: Ship (hazmat cat D). MMSI: 305351000.

Date/timePositionNaut miles runAvg speedWind from/ knotsBaromVisibWave heightAir tempDewpointWater temp
2017-Sep-27 09:56N 36°12' E 014°40'512.2
2017-Sep-27 09:30N 36°13' E 014°34'612.1
2017-Sep-27 08:59N 36°17' E 014°28'612.5
2017-Sep-27 08:30N 36°22' E 014°23'612.8
2017-Sep-27 08:01N 36°25' E 014°16'816.3
2017-Sep-27 07:30N 36°27' E 014°06'39412.2
2017-Sep-25 23:14N 37°28' E 005°59'312.5
2017-Sep-25 23:00N 37°28' E 005°56'1912.4
2017-Sep-25 21:27N 37°27' E 005°32'612.2
2017-Sep-25 20:56N 37°26' E 005°24'512.3
2017-Sep-25 20:30N 37°26' E 005°17'912.3
2017-Sep-25 19:47N 37°25' E 005°06'1812.3
2017-Sep-25 18:17N 37°24' E 004°43'412.5
2017-Sep-25 18:00N 37°23' E 004°38'812.7
2017-Sep-25 17:23N 37°23' E 004°29'812.9
2017-Sep-25 16:46N 37°23' E 004°18'313.0
2017-Sep-25 16:30N 37°22' E 004°14'713.1
2017-Sep-25 16:00N 37°22' E 004°06'713.4
2017-Sep-25 15:30N 37°21' E 003°58'713.3
2017-Sep-25 15:00N 37°21' E 003°49'713.2
2017-Sep-25 14:28N 37°20' E 003°41'613.1
2017-Sep-25 14:00N 37°18' E 003°33'712.9
2017-Sep-25 13:29N 37°17' E 003°25'711.7
2017-Sep-25 12:55N 37°16' E 003°17'4 9.7
2017-Sep-25 12:30N 37°15' E 003°12'816.0
2017-Sep-25 12:00N 37°13' E 003°02'816.0
2017-Sep-25 11:29N 37°12' E 002°52'1113.5
2017-Sep-25 10:40N 37°09' E 002°38'3112.9
2017-Sep-25 08:16N 37°03' E 001°60'312.8
2017-Sep-25 08:00N 37°02' E 001°56'612.7
2017-Sep-25 07:30N 37°01' E 001°48'612.7
2017-Sep-25 07:00N 36°59' E 001°40'612.3
2017-Sep-25 06:30N 36°58' E 001°33'711.9
2017-Sep-25 05:56N 36°57' E 001°24'512.1
2017-Sep-25 05:30N 36°56' E 001°18'612.1
2017-Sep-25 05:00N 36°55' E 001°11'1012.3
2017-Sep-25 04:11N 36°54' E 000°58'312.5
2017-Sep-25 03:56N 36°53' E 000°54'512.8
2017-Sep-25 03:30N 36°52' E 000°48'612.6
2017-Sep-25 03:00N 36°50' E 000°40'612.5
2017-Sep-25 02:30N 36°49' E 000°32'612.6
2017-Sep-25 02:00N 36°48' E 000°25'612.6
2017-Sep-25 01:30N 36°46' E 000°17'612.8
2017-Sep-25 01:00N 36°45' E 000°09'612.5
2017-Sep-25 00:30N 36°44' E 000°01'612.3
2017-Sep-25 00:00N 36°43' W 000°06'612.1
2017-Sep-24 23:29N 36°41' W 000°14'612.0
2017-Sep-24 22:57N 36°40' W 000°22'512.1
2017-Sep-24 22:30N 36°39' W 000°28'1211.9
2017-Sep-24 21:30N 36°36' W 000°43'612.1
2017-Sep-24 21:00N 36°35' W 000°50'612.2
2017-Sep-24 20:30N 36°34' W 000°57'612.4
2017-Sep-24 20:00N 36°33' W 001°05'712.8
2017-Sep-24 19:25N 36°31' W 001°14'513.1
2017-Sep-24 19:00N 36°30' W 001°21'3413.3
2017-Sep-24 16:28N 36°23' W 002°02'1612.6
2017-Sep-24 15:13N 36°21' W 002°21'13712.6
2017-Sep-24 04:19N 36°01' W 005°10'412.7
2017-Sep-24 04:00N 36°00' W 005°14'612.6
2017-Sep-24 03:30N 35°58' W 005°22'612.1
2017-Sep-24 03:00N 35°57' W 005°29'810.0
2017-Sep-24 02:11N 35°54' W 005°39'2 9.3
2017-Sep-24 02:00N 35°54' W 005°41'4 8.3
2017-Sep-24 01:30N 35°53' W 005°46'13 9.7
2017-Sep-24 00:07N 35°53' W 006°02'  
2017-Sep-21 05:15N 43°50' W 006°20'310.4
2017-Sep-21 05:00N 43°50' W 006°16'510.4
2017-Sep-21 04:30N 43°50' W 006°09'710.2
2017-Sep-21 03:47N 43°48' W 005°59'310.5
2017-Sep-21 03:30N 43°48' W 005°55'510.4
2017-Sep-21 03:00N 43°47' W 005°48'510.4
2017-Sep-21 02:30N 43°47' W 005°41'510.0
2017-Sep-21 02:00N 43°46' W 005°34'510.0
2017-Sep-21 01:30N 43°46' W 005°27'510.1
2017-Sep-21 01:00N 43°45' W 005°20'510.1
2017-Sep-21 00:28N 43°45' W 005°12'5 9.9
2017-Sep-20 23:59N 43°44' W 005°06'  

Dump ship's entire track history